createdAt,value
2022-12-25T00:05:13.028Z,4.44
2022-12-25T00:15:19.130Z,4.29
2022-12-25T00:25:25.018Z,4.26
2022-12-25T00:35:31.257Z,4.20
2022-12-25T00:45:37.360Z,4.17
2022-12-25T00:55:43.648Z,4.19
2022-12-25T01:05:57.791Z,4.20
2022-12-25T01:16:08.585Z,4.29
2022-12-25T01:26:16.309Z,4.33
2022-12-25T01:36:23.942Z,4.37
2022-12-25T01:46:30.058Z,4.41
2022-12-25T01:56:38.665Z,4.40
2022-12-25T02:06:44.782Z,4.42
2022-12-25T02:16:58.947Z,4.47
2022-12-25T02:27:15.488Z,4.51
2022-12-25T02:37:25.340Z,4.53
2022-12-25T02:47:49.921Z,4.54
2022-12-25T02:58:30.886Z,4.62
2022-12-25T03:08:40.676Z,4.67
2022-12-25T03:18:47.186Z,4.66
2022-12-25T03:28:53.109Z,4.69
2022-12-25T03:39:33.458Z,4.67
2022-12-25T03:50:05.350Z,4.67
2022-12-25T04:00:30.437Z,4.60
2022-12-25T04:10:54.399Z,4.58
2022-12-25T04:21:17.739Z,4.56
2022-12-25T04:31:41.841Z,4.56
2022-12-25T04:41:47.959Z,4.64
2022-12-25T04:51:53.842Z,4.67
2022-12-25T05:01:59.892Z,4.64
2022-12-25T05:12:06.871Z,4.60
2022-12-25T05:22:12.909Z,4.58
2022-12-25T05:32:18.931Z,4.53
2022-12-25T05:42:24.838Z,4.42
2022-12-25T05:52:33.746Z,4.39
2022-12-25T06:02:39.752Z,4.32
2022-12-25T06:12:45.689Z,4.36
2022-12-25T06:22:51.759Z,4.44
2022-12-25T06:32:59.563Z,4.47
2022-12-25T06:43:06.105Z,4.47
2022-12-25T06:53:12.214Z,4.44
2022-12-25T07:03:21.821Z,4.44
2022-12-25T07:13:28.229Z,4.46
2022-12-25T07:23:34.336Z,4.50
2022-12-25T07:33:40.241Z,4.51
2022-12-25T07:43:46.351Z,4.53
2022-12-25T07:53:52.704Z,4.63
2022-12-25T08:04:00.680Z,4.70
2022-12-25T08:14:09.054Z,4.78
2022-12-25T08:24:15.097Z,4.92
2022-12-25T08:34:21.123Z,4.97
2022-12-25T08:44:27.028Z,5.04
2022-12-25T08:54:34.849Z,5.04
2022-12-25T09:04:40.886Z,5.24
2022-12-25T09:14:46.780Z,5.48
2022-12-25T09:24:52.887Z,5.64
2022-12-25T09:34:58.901Z,5.77
2022-12-25T09:45:12.507Z,5.87
2022-12-25T09:55:21.953Z,5.99
2022-12-25T10:05:57.067Z,6.18
2022-12-25T10:16:15.789Z,6.33
2022-12-25T10:26:25.393Z,6.51
2022-12-25T10:36:32.525Z,6.55
2022-12-25T10:46:38.545Z,6.64
2022-12-25T10:56:55.477Z,6.82
2022-12-25T11:07:06.270Z,7.03
2022-12-25T11:17:19.111Z,7.09
2022-12-25T11:27:28.684Z,7.05
2022-12-25T11:37:39.536Z,7.11
2022-12-25T11:47:50.019Z,7.04
2022-12-25T11:58:00.589Z,7.05
2022-12-25T12:08:10.647Z,7.28
2022-12-25T12:18:23.980Z,7.46
2022-12-25T12:28:38.868Z,7.27
2022-12-25T12:38:47.233Z,7.33
2022-12-25T12:48:55.762Z,7.45
2022-12-25T12:59:01.786Z,7.47
2022-12-25T13:09:18.324Z,7.27
2022-12-25T13:19:26.988Z,6.96
2022-12-25T13:29:34.562Z,6.79
2022-12-25T13:39:48.716Z,6.64
2022-12-25T13:49:56.685Z,6.47
2022-12-25T14:00:03.956Z,6.36
2022-12-25T14:10:15.177Z,6.23
2022-12-25T14:20:33.902Z,6.08
2022-12-25T14:30:44.988Z,5.92
2022-12-25T14:41:01.829Z,5.77
2022-12-25T14:51:16.271Z,5.60
2022-12-25T15:01:28.425Z,5.46
2022-12-25T15:11:34.706Z,5.36
2022-12-25T15:21:41.026Z,5.30
2022-12-25T15:31:47.191Z,5.21
2022-12-25T15:42:11.018Z,5.16
2022-12-25T15:52:18.358Z,5.13
2022-12-25T16:02:24.515Z,5.08
2022-12-25T16:12:30.838Z,5.01
2022-12-25T16:22:40.044Z,4.93
2022-12-25T16:32:49.392Z,4.68
2022-12-25T16:42:55.829Z,4.45
2022-12-25T16:53:01.694Z,4.25
2022-12-25T17:03:07.681Z,4.12
2022-12-25T17:13:13.559Z,4.15
2022-12-25T17:23:19.455Z,4.29
2022-12-25T17:33:25.416Z,4.34
2022-12-25T17:43:31.559Z,4.27
2022-12-25T17:53:38.964Z,4.18
2022-12-25T18:03:45.860Z,4.10
2022-12-25T18:13:53.957Z,4.03
2022-12-25T18:23:59.886Z,3.96
2022-12-25T18:34:06.003Z,3.86
2022-12-25T18:44:11.952Z,3.75
2022-12-25T18:54:17.832Z,3.68
2022-12-25T19:04:24.062Z,3.64
2022-12-25T19:14:30.159Z,3.59
2022-12-25T19:24:53.640Z,3.57
2022-12-25T19:35:04.364Z,3.58
2022-12-25T19:45:11.861Z,3.60
2022-12-25T19:55:19.023Z,3.60
2022-12-25T20:05:23.438Z,3.58
2022-12-25T20:15:29.323Z,3.55
2022-12-25T20:25:35.757Z,3.48
2022-12-25T20:35:48.032Z,3.40
2022-12-25T20:45:54.370Z,3.35
2022-12-25T20:56:01.453Z,3.31
2022-12-25T21:06:08.411Z,3.28
2022-12-25T21:16:16.190Z,3.24
2022-12-25T21:26:24.680Z,3.22
2022-12-25T21:36:35.763Z,3.22
2022-12-25T21:46:41.762Z,3.25
2022-12-25T21:56:49.292Z,3.26
2022-12-25T22:07:12.308Z,3.27
2022-12-25T22:17:36.738Z,3.29
2022-12-25T22:27:43.814Z,3.32
2022-12-25T22:37:50.113Z,3.33
2022-12-25T22:47:56.087Z,3.34
2022-12-25T22:58:02.063Z,3.40
2022-12-25T23:08:08.109Z,3.49
2022-12-25T23:18:31.482Z,3.55
2022-12-25T23:28:55.059Z,3.57
2022-12-25T23:39:09.001Z,3.59
2022-12-25T23:49:15.946Z,3.61
2022-12-25T23:59:21.913Z,3.65
